createdAt,value
2018-07-30T00:02:00.409Z,31.32
2018-07-30T00:04:26.531Z,31.17
2018-07-30T00:06:53.154Z,31.31
2018-07-30T00:09:20.000Z,31.23
2018-07-30T00:11:46.282Z,31.15
2018-07-30T00:14:13.200Z,31.20
2018-07-30T00:16:39.356Z,31.21
2018-07-30T00:19:06.136Z,31.18
2018-07-30T00:21:32.942Z,31.13
2018-07-30T00:23:58.957Z,30.73
2018-07-30T00:26:26.367Z,30.76
2018-07-30T00:28:52.474Z,30.82
2018-07-30T00:31:19.693Z,30.96
2018-07-30T00:33:46.430Z,31.06
2018-07-30T00:36:14.859Z,31.12
2018-07-30T00:38:42.898Z,30.97
2018-07-30T00:41:10.848Z,31.03
2018-07-30T00:43:37.215Z,31.10
2018-07-30T00:46:03.430Z,31.11
2018-07-30T00:48:29.565Z,31.04
2018-07-30T00:50:56.711Z,31.12
2018-07-30T00:53:22.870Z,31.07
2018-07-30T00:55:50.392Z,31.04
2018-07-30T01:00:48.881Z,30.96
2018-07-30T01:03:14.972Z,31.01
2018-07-30T01:05:41.102Z,31.07
2018-07-30T01:08:08.074Z,31.03
2018-07-30T01:10:34.149Z,30.99
2018-07-30T01:13:00.146Z,30.93
2018-07-30T01:20:37.713Z,30.94
2018-07-30T01:23:08.844Z,30.75
2018-07-30T01:25:34.980Z,30.65
2018-07-30T01:28:01.825Z,30.61
2018-07-30T01:30:27.836Z,30.58
2018-07-30T01:32:53.895Z,30.73
2018-07-30T01:35:20.016Z,30.74
2018-07-30T01:37:46.046Z,30.44
2018-07-30T01:40:12.074Z,30.23
2018-07-30T01:42:38.098Z,30.33
2018-07-30T01:45:04.983Z,30.39
2018-07-30T01:50:02.804Z,30.54
2018-07-30T01:57:32.640Z,30.40
2018-07-30T01:59:58.608Z,30.42
2018-07-30T02:02:24.577Z,30.52
2018-07-30T02:04:50.565Z,30.60
2018-07-30T02:07:16.574Z,30.70
2018-07-30T02:09:42.542Z,30.59
2018-07-30T02:12:08.516Z,30.38
2018-07-30T02:14:35.138Z,30.30
2018-07-30T02:17:02.014Z,30.38
2018-07-30T02:19:28.025Z,30.23
2018-07-30T02:21:54.083Z,29.98
2018-07-30T02:24:20.102Z,30.12
2018-07-30T02:26:46.182Z,29.98
2018-07-30T02:29:12.224Z,30.04
2018-07-30T02:31:38.250Z,29.94
2018-07-30T02:34:05.080Z,30.14
2018-07-30T02:36:33.050Z,30.03
2018-07-30T02:39:02.068Z,29.83
2018-07-30T02:41:28.136Z,29.98
2018-07-30T02:43:54.614Z,29.94
2018-07-30T02:46:20.718Z,29.52
2018-07-30T02:48:49.277Z,29.57
2018-07-30T02:51:15.321Z,29.75
2018-07-30T02:53:41.364Z,30.01
2018-07-30T02:56:07.408Z,30.07
2018-07-30T02:58:33.502Z,30.01
2018-07-30T03:00:59.614Z,29.94
2018-07-30T03:03:26.703Z,29.76
2018-07-30T03:05:54.935Z,29.61
2018-07-30T03:08:24.111Z,29.47
2018-07-30T03:16:13.377Z,29.85
2018-07-30T03:21:11.160Z,29.94
2018-07-30T03:23:37.869Z,29.93
2018-07-30T03:26:03.887Z,30.21
2018-07-30T03:28:29.902Z,30.09
2018-07-30T03:30:55.923Z,30.12
2018-07-30T03:33:24.912Z,30.34
2018-07-30T03:35:50.924Z,30.45
2018-07-30T03:38:16.976Z,30.31
2018-07-30T03:40:42.977Z,30.39
2018-07-30T03:43:10.259Z,30.17
2018-07-30T03:45:36.301Z,30.14
2018-07-30T03:48:02.468Z,30.47
2018-07-30T03:50:29.116Z,30.62
2018-07-30T03:52:55.256Z,30.56
2018-07-30T03:55:21.336Z,30.52
2018-07-30T04:02:52.733Z,30.48
2018-07-30T04:05:19.199Z,30.48
2018-07-30T04:07:45.359Z,30.47
2018-07-30T04:10:13.107Z,30.42
2018-07-30T04:12:39.199Z,30.42
2018-07-30T04:15:05.169Z,30.46
2018-07-30T04:17:31.151Z,30.50
2018-07-30T04:19:57.311Z,30.51
2018-07-30T04:22:23.517Z,30.56
2018-07-30T04:24:50.450Z,30.57
2018-07-30T04:27:19.694Z,30.36
2018-07-30T04:29:47.352Z,30.44
2018-07-30T04:32:15.634Z,30.56
2018-07-30T04:34:41.755Z,30.62
2018-07-30T04:37:09.594Z,30.81
2018-07-30T04:39:37.319Z,30.63
2018-07-30T04:42:04.132Z,30.83
2018-07-30T04:44:31.016Z,30.87
2018-07-30T04:46:57.874Z,30.89
2018-07-30T04:49:25.247Z,30.80
2018-07-30T04:51:52.929Z,30.92
2018-07-30T04:54:19.361Z,30.94
2018-07-30T04:56:49.238Z,31.02
2018-07-30T04:59:17.143Z,31.03
2018-07-30T05:01:46.510Z,31.02
2018-07-30T05:04:13.621Z,30.90
2018-07-30T05:06:41.214Z,31.11
2018-07-30T05:09:09.395Z,31.01
2018-07-30T05:11:37.083Z,31.14
2018-07-30T05:16:38.346Z,30.87
2018-07-30T05:21:37.270Z,30.87
2018-07-30T05:24:03.945Z,30.83
2018-07-30T05:26:31.454Z,31.02
2018-07-30T05:29:01.181Z,31.06
2018-07-30T05:31:28.258Z,31.12
2018-07-30T05:33:54.330Z,31.15
2018-07-30T05:36:21.468Z,31.21
2018-07-30T05:38:48.198Z,31.22
2018-07-30T05:41:14.763Z,31.33
2018-07-30T05:43:41.226Z,31.30
2018-07-30T05:46:09.527Z,31.36
2018-07-30T05:48:36.156Z,31.28
2018-07-30T05:51:02.323Z,31.19
2018-07-30T05:53:30.082Z,31.31
2018-07-30T05:55:56.909Z,31.35
2018-07-30T05:58:24.426Z,30.98
2018-07-30T06:00:51.932Z,31.24
2018-07-30T06:03:20.206Z,31.27
2018-07-30T06:05:47.400Z,31.39
2018-07-30T06:10:48.105Z,31.54
2018-07-30T06:13:14.249Z,31.53
2018-07-30T06:15:42.056Z,31.54
2018-07-30T06:20:41.796Z,31.61
2018-07-30T06:23:09.220Z,31.75
2018-07-30T06:25:35.299Z,31.85
2018-07-30T06:28:03.079Z,31.93
2018-07-30T06:30:30.070Z,32.11
2018-07-30T06:33:00.238Z,32.47
2018-07-30T06:35:26.339Z,32.81
2018-07-30T06:37:54.602Z,32.77
2018-07-30T06:40:22.102Z,32.96
2018-07-30T06:42:51.922Z,33.05
2018-07-30T06:47:55.628Z,33.15
2018-07-30T06:50:22.650Z,33.29
2018-07-30T06:52:49.732Z,33.56
2018-07-30T06:55:16.565Z,33.50
2018-07-30T06:57:42.770Z,33.44
2018-07-30T07:00:10.916Z,33.51
2018-07-30T07:05:24.610Z,33.70
2018-07-30T07:09:10.672Z,33.82
2018-07-30T07:11:38.981Z,33.70
2018-07-30T07:14:05.124Z,33.88
2018-07-30T07:19:05.081Z,34.26
2018-07-30T07:21:33.117Z,34.26
2018-07-30T07:23:59.231Z,34.34
2018-07-30T08:26:29.642Z,35.17
2018-07-30T08:28:55.903Z,35.12
2018-07-30T08:31:21.982Z,35.18
2018-07-30T08:33:48.031Z,35.31
2018-07-30T08:36:14.087Z,35.43
2018-07-30T08:38:40.245Z,35.51
2018-07-30T08:41:06.372Z,35.48
2018-07-30T08:43:32.364Z,35.46
2018-07-30T08:45:58.388Z,35.45
2018-07-30T08:48:24.437Z,35.50
2018-07-30T08:50:50.457Z,35.26
2018-07-30T08:53:16.495Z,35.35
2018-07-30T08:55:42.498Z,35.42
2018-07-30T08:58:08.469Z,35.24
2018-07-30T09:00:34.444Z,35.15
2018-07-30T09:03:00.391Z,35.25
2018-07-30T09:05:26.367Z,35.31
2018-07-30T09:07:53.437Z,35.33
2018-07-30T09:10:25.070Z,35.36
2018-07-30T09:12:51.109Z,35.27
2018-07-30T09:15:17.089Z,35.24
2018-07-30T09:17:43.066Z,35.25
2018-07-30T09:20:09.046Z,35.28
2018-07-30T09:22:35.034Z,35.27
2018-07-30T09:25:01.005Z,35.28
2018-07-30T09:27:28.057Z,35.16
2018-07-30T09:29:54.030Z,35.23
2018-07-30T09:32:20.053Z,35.29
2018-07-30T09:34:46.022Z,35.32
2018-07-30T09:37:11.985Z,35.30
2018-07-30T09:39:38.014Z,35.28
2018-07-30T09:42:03.925Z,35.26
2018-07-30T09:44:29.885Z,35.20
2018-07-30T09:46:55.867Z,35.16
2018-07-30T09:49:21.883Z,35.11
2018-07-30T09:51:47.867Z,35.10
2018-07-30T09:54:13.871Z,35.12
2018-07-30T09:56:39.847Z,35.11
2018-07-30T09:59:05.824Z,35.16
2018-07-30T10:01:31.789Z,35.18
2018-07-30T10:03:57.827Z,35.14
2018-07-30T10:06:23.824Z,35.07
2018-07-30T10:08:49.847Z,35.05
2018-07-30T10:11:15.846Z,35.08
2018-07-30T10:13:42.921Z,35.11
2018-07-30T10:16:09.038Z,35.11
2018-07-30T10:18:36.105Z,34.98
2018-07-30T10:21:02.073Z,35.00
2018-07-30T10:23:28.080Z,35.02
2018-07-30T10:25:54.061Z,34.98
2018-07-30T10:28:20.093Z,35.03
2018-07-30T10:30:46.123Z,35.04
2018-07-30T10:33:12.062Z,35.07
2018-07-30T10:35:38.701Z,35.06
2018-07-30T10:38:04.805Z,35.04
2018-07-30T10:40:30.725Z,34.97
2018-07-30T10:42:56.695Z,34.95
2018-07-30T10:45:22.645Z,34.94
2018-07-30T10:47:48.717Z,34.96
2018-07-30T10:50:14.834Z,35.00
2018-07-30T10:52:40.969Z,35.03
2018-07-30T10:55:06.969Z,34.99
2018-07-30T10:57:32.993Z,34.97
2018-07-30T10:59:59.047Z,34.98
2018-07-30T11:02:25.173Z,34.87
2018-07-30T11:04:53.301Z,35.07
2018-07-30T11:07:19.483Z,35.09
2018-07-30T11:09:46.747Z,35.09
2018-07-30T11:14:45.757Z,35.06
2018-07-30T11:17:14.738Z,35.08
2018-07-30T11:19:40.796Z,35.09
2018-07-30T11:22:06.874Z,35.08
2018-07-30T11:24:32.913Z,34.96
2018-07-30T11:26:59.973Z,35.03
2018-07-30T11:29:26.048Z,35.09
2018-07-30T11:31:53.161Z,35.10
2018-07-30T11:34:20.241Z,34.94
2018-07-30T11:36:46.320Z,34.88
2018-07-30T11:39:12.434Z,34.88
2018-07-30T11:41:38.443Z,34.93
2018-07-30T11:44:04.446Z,35.01
2018-07-30T11:49:02.466Z,35.05
2018-07-30T11:54:00.407Z,34.99
2018-07-30T11:56:27.334Z,34.91
2018-07-30T11:58:56.696Z,34.94
2018-07-30T12:03:56.237Z,34.99
2018-07-30T12:06:25.019Z,35.02
2018-07-30T12:08:52.080Z,35.05
2018-07-30T12:11:20.098Z,35.08
2018-07-30T12:16:17.282Z,35.08
2018-07-30T12:18:44.367Z,35.07
2018-07-30T12:21:11.361Z,35.07
2018-07-30T12:23:37.384Z,35.06
2018-07-30T12:26:03.403Z,34.94
2018-07-30T12:28:30.467Z,34.83
2018-07-30T12:30:57.496Z,34.75
2018-07-30T12:33:23.525Z,34.72
2018-07-30T12:35:49.521Z,34.78
2018-07-30T12:38:15.574Z,34.68
2018-07-30T12:40:43.547Z,34.58
2018-07-30T12:43:10.596Z,34.65
2018-07-30T12:45:36.711Z,34.66
2018-07-30T12:48:02.745Z,34.57
2018-07-30T12:50:28.811Z,34.53
2018-07-30T12:52:54.769Z,34.57
2018-07-30T12:55:20.800Z,34.56
2018-07-30T13:00:18.792Z,33.40
2018-07-30T13:02:44.864Z,33.04
2018-07-30T13:05:11.872Z,33.14
2018-07-30T13:07:37.858Z,32.78
2018-07-30T13:10:03.912Z,32.67
2018-07-30T13:12:29.940Z,32.78
2018-07-30T13:14:57.765Z,32.91
2018-07-30T13:17:23.833Z,32.73
2018-07-30T13:19:50.893Z,32.85
2018-07-30T13:22:22.352Z,32.88
2018-07-30T13:24:48.425Z,32.78
2018-07-30T13:27:15.419Z,32.62
2018-07-30T13:29:45.123Z,32.54
2018-07-30T13:32:11.176Z,32.68
2018-07-30T13:34:37.165Z,32.61
2018-07-30T13:37:03.128Z,32.55
2018-07-30T13:39:29.093Z,32.54
2018-07-30T13:41:55.052Z,32.52
2018-07-30T13:44:21.039Z,32.70
2018-07-30T13:46:47.022Z,32.70
2018-07-30T13:49:13.027Z,32.73
2018-07-30T13:51:39.023Z,32.75
2018-07-30T13:54:07.046Z,32.78
2018-07-30T13:56:32.973Z,32.64
2018-07-30T13:58:58.961Z,32.61
2018-07-30T14:01:24.936Z,32.69
2018-07-30T14:03:50.950Z,32.95
2018-07-30T14:06:16.992Z,32.98
2018-07-30T14:08:42.903Z,33.11
2018-07-30T14:11:08.877Z,33.48
2018-07-30T14:13:34.841Z,33.71
2018-07-30T14:16:00.806Z,33.49
2018-07-30T14:18:26.772Z,33.38
2018-07-30T14:20:52.713Z,33.64
2018-07-30T14:23:18.681Z,33.91
2018-07-30T14:25:44.647Z,33.91
2018-07-30T14:28:10.627Z,33.63
2018-07-30T14:30:36.570Z,33.52
2018-07-30T14:33:02.515Z,33.60
2018-07-30T14:35:28.493Z,33.70
2018-07-30T14:37:54.454Z,34.02
2018-07-30T14:40:20.432Z,34.18
2018-07-30T14:42:46.437Z,34.26
2018-07-30T14:45:12.469Z,34.13
2018-07-30T14:47:38.508Z,34.06
2018-07-30T14:50:04.588Z,34.07
2018-07-30T14:52:30.615Z,34.04
2018-07-30T14:54:56.648Z,34.26
2018-07-30T14:57:22.745Z,34.39
2018-07-30T14:59:48.864Z,34.40
2018-07-30T15:02:14.825Z,34.39
2018-07-30T15:04:40.892Z,34.50
2018-07-30T15:07:06.989Z,34.48
2018-07-30T15:09:33.021Z,34.49
2018-07-30T15:11:59.077Z,34.49
2018-07-30T15:14:25.154Z,34.52
2018-07-30T15:16:51.222Z,34.50
2018-07-30T15:19:17.959Z,34.58
2018-07-30T15:21:47.772Z,34.59
2018-07-30T15:24:14.671Z,34.62
2018-07-30T15:26:41.462Z,34.65
2018-07-30T15:59:11.919Z,34.51
2018-07-30T16:01:37.963Z,34.57
2018-07-30T16:04:06.203Z,34.63
2018-07-30T16:09:03.630Z,34.67
2018-07-30T16:16:33.448Z,34.60
2018-07-30T16:19:00.818Z,34.66
2018-07-30T16:26:03.392Z,34.06
2018-07-30T16:31:01.421Z,34.34
2018-07-30T16:33:27.408Z,34.47
2018-07-30T16:35:53.393Z,34.56
2018-07-30T16:40:51.108Z,34.62
2018-07-30T16:43:17.173Z,34.65
2018-07-30T16:45:43.289Z,34.68
2018-07-30T16:50:41.713Z,34.63
2018-07-30T16:53:07.751Z,34.61
2018-07-30T16:55:33.738Z,34.66
2018-07-30T16:57:59.720Z,34.69
2018-07-30T17:00:25.723Z,34.70
2018-07-30T17:02:51.837Z,34.70
2018-07-30T17:05:18.772Z,34.69
2018-07-30T17:07:45.083Z,34.71
2018-07-30T17:10:11.819Z,34.73
2018-07-30T17:22:49.542Z,34.54
2018-07-30T17:25:15.668Z,34.60
2018-07-30T17:27:41.784Z,34.60
2018-07-30T17:30:09.770Z,34.65
2018-07-30T17:32:36.090Z,34.65
2018-07-30T17:35:02.223Z,34.63
2018-07-30T17:37:29.174Z,34.65
2018-07-30T17:40:02.346Z,34.69
2018-07-30T17:42:32.245Z,34.69
2018-07-30T17:44:59.552Z,34.71
2018-07-30T17:50:03.988Z,34.60
2018-07-30T17:52:33.871Z,34.62
2018-07-30T17:55:00.667Z,34.58
2018-07-30T17:57:27.421Z,34.63
2018-07-30T17:59:56.990Z,34.65
2018-07-30T18:02:23.979Z,34.62
2018-07-30T18:09:59.191Z,34.67
2018-07-30T18:12:27.089Z,34.56
2018-07-30T18:14:53.853Z,34.60
2018-07-30T18:17:39.740Z,34.62
2018-07-30T18:20:05.899Z,34.55
2018-07-30T18:22:36.043Z,34.57
2018-07-30T18:25:02.106Z,34.54
2018-07-30T18:30:03.333Z,34.60
2018-07-30T18:32:29.614Z,34.53
2018-07-30T18:34:55.749Z,34.61
2018-07-30T18:37:22.859Z,34.64
2018-07-30T18:47:41.135Z,34.63
2018-07-30T18:50:17.020Z,34.62
2018-07-30T18:55:18.251Z,34.63
2018-07-30T18:57:49.802Z,34.61
2018-07-30T19:00:16.030Z,34.66
2018-07-30T19:02:42.131Z,34.61
2018-07-30T19:07:39.945Z,34.62
2018-07-30T19:10:12.666Z,34.62
2018-07-30T19:16:05.501Z,34.49
2018-07-30T19:21:05.667Z,34.64
2018-07-30T19:23:32.329Z,34.71
2018-07-30T19:25:59.599Z,34.62
2018-07-30T19:28:25.720Z,34.73
2018-07-30T19:30:52.990Z,34.79
2018-07-30T19:35:53.553Z,34.83
2018-07-30T19:38:21.823Z,34.82
2018-07-30T19:40:48.876Z,34.81
2018-07-30T19:43:17.452Z,34.84
2018-07-30T19:51:05.955Z,34.71
2018-07-30T19:53:34.945Z,34.70
2018-07-30T19:58:34.205Z,34.61
2018-07-30T20:08:41.850Z,34.84
2018-07-30T20:18:56.937Z,34.71
2018-07-30T20:27:15.074Z,34.56
2018-07-30T20:32:16.137Z,34.52
2018-07-30T20:34:43.061Z,34.50
2018-07-30T20:37:12.689Z,34.58
2018-07-30T20:54:58.505Z,33.52
2018-07-30T20:57:24.614Z,33.30
2018-07-30T20:59:50.650Z,33.27
2018-07-30T21:02:16.777Z,33.45
2018-07-30T21:04:42.889Z,33.42
2018-07-30T21:07:08.871Z,33.50
2018-07-30T21:09:34.834Z,32.97
2018-07-30T21:12:00.815Z,33.14
2018-07-30T21:14:26.826Z,32.98
2018-07-30T21:16:52.831Z,33.33
2018-07-30T21:19:18.978Z,33.32
2018-07-30T21:21:44.990Z,33.25
2018-07-30T21:24:11.025Z,32.97
2018-07-30T21:26:37.028Z,32.57
2018-07-30T21:29:03.013Z,32.74
2018-07-30T21:31:29.009Z,32.56
2018-07-30T21:33:54.957Z,32.38
2018-07-30T21:36:20.936Z,32.56
2018-07-30T21:38:46.918Z,32.77
2018-07-30T21:41:12.948Z,32.84
2018-07-30T21:43:38.912Z,32.79
2018-07-30T21:46:04.884Z,32.74
2018-07-30T21:48:30.865Z,32.75
2018-07-30T21:50:56.847Z,32.84
2018-07-30T21:53:22.782Z,32.98
2018-07-30T21:55:48.770Z,32.83
2018-07-30T21:58:14.739Z,32.71
2018-07-30T22:00:40.762Z,32.81
2018-07-30T22:03:06.797Z,32.75
2018-07-30T22:05:32.855Z,32.47
2018-07-30T22:07:58.787Z,32.50
2018-07-30T22:10:24.743Z,32.52
2018-07-30T22:12:50.693Z,32.37
2018-07-30T22:15:17.069Z,32.30
2018-07-30T22:17:43.024Z,32.15
2018-07-30T22:20:09.030Z,32.20
2018-07-30T22:22:35.001Z,32.34
2018-07-30T22:25:01.015Z,32.43
2018-07-30T22:27:27.035Z,32.41
2018-07-30T22:29:53.050Z,32.47
2018-07-30T22:32:19.029Z,32.45
2018-07-30T22:34:45.047Z,32.04
2018-07-30T22:37:11.017Z,32.18
2018-07-30T22:39:37.042Z,31.86
2018-07-30T22:42:02.988Z,31.91
2018-07-30T22:44:28.955Z,32.02
2018-07-30T22:46:54.945Z,32.13
2018-07-30T22:49:20.920Z,32.08
2018-07-30T22:51:46.940Z,31.93
2018-07-30T22:54:12.949Z,31.66
2018-07-30T22:56:38.957Z,31.35
2018-07-30T22:59:04.907Z,31.00
2018-07-30T23:01:30.889Z,31.36
2018-07-30T23:03:56.874Z,31.49
2018-07-30T23:06:22.878Z,31.69
2018-07-30T23:08:48.867Z,31.39
2018-07-30T23:11:14.841Z,31.39
2018-07-30T23:13:40.815Z,31.39
2018-07-30T23:16:06.852Z,31.33
2018-07-30T23:18:32.866Z,31.28
2018-07-30T23:20:58.963Z,31.19
2018-07-30T23:23:25.086Z,31.29
2018-07-30T23:25:51.141Z,31.28
2018-07-30T23:28:17.166Z,31.41
2018-07-30T23:30:43.169Z,31.13
2018-07-30T23:33:09.210Z,31.16
2018-07-30T23:35:35.241Z,31.31
2018-07-30T23:38:01.286Z,31.34
2018-07-30T23:40:27.314Z,31.35
2018-07-30T23:42:53.307Z,31.38
2018-07-30T23:45:19.313Z,31.43
2018-07-30T23:47:45.309Z,31.49
2018-07-30T23:50:11.268Z,31.57
2018-07-30T23:52:37.295Z,31.66
2018-07-30T23:55:03.384Z,31.50
2018-07-30T23:57:29.234Z,30.66
2018-07-30T23:59:57.087Z,30.83
